Thursday, September 20, 2018, 10:12 PM EDT
Back to Local

KPYM, Plymouth Municipal Airport

Location: Carver, MA, United States Lat: 41.9
Local Time: 10:12 PM EDT ( 2:12 GMT) Lon: -70.733
Time Zone: US/Eastern Elev: 147 ft

Show me the last for .
Show Decoded

2018-09-20 21:52 METAR KPYM 210152Z AUTO 09003KT 10SM OVC050 16/13 A3030 RMK AO2 SLP261 T01610128
                 =
2018-09-20 20:52 METAR KPYM 210052Z AUTO 02003KT 10SM OVC047 16/12 A3031 RMK AO2 SLP264 T01610122
                 =
2018-09-20 19:52 METAR KPYM 202352Z AUTO 06004KT 10SM OVC046 16/13 A3028 RMK AO2 SLP253 T01610128
                 10194 20161 53008 =
2018-09-20 18:52 METAR KPYM 202252Z AUTO 08006KT 10SM OVC041 17/13 A3027 RMK AO2 SLP249 T01670128
                 =
2018-09-20 17:52 METAR KPYM 202152Z AUTO 08006KT 10SM FEW023 SCT036 OVC044 17/13 A3026 RMK AO2
                 SLP245 T01720133 =
2018-09-20 16:52 METAR KPYM 202052Z AUTO 07008KT 10SM OVC045 18/13 A3026 RMK AO2 SLP245 T01780128
                 53003 =
2018-09-20 16:38 METAR KPYM 202038Z AUTO 05007KT 10SM FEW021 SCT027 OVC045 18/13 A3026 RMK AO2
                 T01780128 =
2018-09-20 16:16 METAR KPYM 202016Z AUTO 04010KT 10SM BKN026 BKN032 OVC045 18/13 A3025 RMK AO2
                 T01780128 =
2018-09-20 15:52 METAR KPYM 201952Z AUTO 04008KT 10SM SCT020 SCT029 OVC045 18/13 A3025 RMK AO2
                 SLP244 T01780133 =
2018-09-20 15:43 METAR KPYM 201943Z AUTO 04009KT 10SM SCT020 SCT029 OVC043 18/14 A3025 RMK AO2
                 T01780139 =
2018-09-20 15:30 METAR KPYM 201930Z AUTO 03008KT 10SM SCT020 BKN027 OVC041 18/14 A3025 RMK AO2
                 T01780139 =
2018-09-20 15:18 METAR KPYM 201918Z AUTO 05011KT 10SM FEW016 FEW025 OVC036 18/14 A3025 RMK AO2
                 T01780139 =
2018-09-20 14:52 METAR KPYM 201852Z AUTO 04010KT 10SM SCT016 BKN023 OVC036 18/14 A3025 RMK AO2
                 SLP242 T01780139 =
2018-09-20 13:52 METAR KPYM 201752Z AUTO 05010KT 10SM FEW015 BKN026 OVC041 18/14 A3025 RMK AO2
                 RAE23 SLP242 P0001 60008 T01780144 10183 20167 50000 =
2018-09-20 13:14 METAR KPYM 201714Z AUTO 03007KT 6SM -RA BR SCT014 BKN021 OVC027 17/15 A3026 RMK
                 AO2 P0001 T01670150 =
2018-09-20 13:02 METAR KPYM 201702Z AUTO 05008KT 2 1/2SM -RA BR SCT016 BKN024 OVC035 17/15 A3025
                 RMK AO2 P0000 T01670150 =
2018-09-20 12:52 METAR KPYM 201652Z AUTO 03011KT 4SM -RA BR SCT014 BKN018 OVC033 17/15 A3025 RMK
                 AO2 RAB04 SLP244 P0002 T01670150 =
2018-09-20 11:52 METAR KPYM 201552Z AUTO 05011G17KT 10SM SCT013 BKN022 OVC050 18/16 A3025 RMK AO2
                 RAB03E43 SLP243 P0002 T01830156 =
2018-09-20 11:12 METAR KPYM 201512Z AUTO 05008KT 10SM -RA BKN011 BKN016 OVC023 17/16 A3025 RMK
                 AO2 RAB03 P0000 T01720156 =
2018-09-20 10:52 METAR KPYM 201452Z AUTO 04009KT 8SM FEW010 BKN024 OVC047 17/16 A3025 RMK AO2
                 RAE41 SLP242 P0000 60003 T01720156 53013 =
2018-09-20 10:17 METAR KPYM 201417Z AUTO 02011KT 5SM -RA BR FEW007 BKN019 OVC043 17/16 A3024 RMK
                 AO2 P0000 T01670156 =
2018-09-20 10:01 METAR KPYM 201401Z AUTO 02010KT 2SM -RA BR FEW007 OVC019 17/16 A3023 RMK AO2
                 P0000 T01720156 =
2018-09-20 09:52 METAR KPYM 201352Z AUTO 02009KT 1 3/4SM -RA BR FEW005 BKN019 OVC026 17/16 A3023
                 RMK AO2 SLP235 P0002 T01670156 =
2018-09-20 09:50 METAR KPYM 201350Z AUTO 02011KT 2SM -RA BR FEW005 BKN019 OVC028 17/16 A3023 RMK
                 AO2 P0001 =
2018-09-20 09:37 METAR KPYM 201337Z AUTO 02009KT 1 3/4SM -RA BR FEW006 BKN024 OVC034 16/15 A3023
                 RMK AO2 P0001 T01610150 =
2018-09-20 09:27 METAR KPYM 201327Z AUTO 03010KT 2 1/2SM -RA BR FEW008 BKN027 OVC036 17/15 A3022
                 RMK AO2 P0000 T01670150 =
2018-09-20 09:21 METAR KPYM 201321Z AUTO 03011KT 3SM -RA BR FEW009 SCT022 OVC033 17/15 A3022 RMK
                 AO2 P0000 T01670150 =
2018-09-20 08:59 METAR KPYM 201259Z AUTO 02009KT 10SM -RA SCT009 SCT016 OVC021 17/16 A3021 RMK
                 AO2 P0000 T01720156 =
2018-09-20 08:52 METAR KPYM 201252Z AUTO 01011KT 5SM -RA BR SCT008 BKN013 OVC019 17/15 A3021 RMK
                 AO2 RAB1155 SLP229 P0001 T01670150 =
2018-09-20 08:32 METAR KPYM 201232Z AUTO 03010KT 4SM -RA BR BKN013 BKN021 OVC029 17/15 A3020 RMK
                 AO2 RAB1155 P0000 T01670150 =
2018-09-20 07:52 METAR KPYM 201152Z AUTO 03009KT 10SM SCT010 BKN018 OVC032 17/15 A3018 RMK AO2
                 RAB06E44 SLP218 P0001 60001 70009 T01670150 10172 20161 53021 =
2018-09-20 06:52 METAR KPYM 201052Z AUTO 03009KT 10SM FEW010 BKN016 OVC041 17/14 A3015 RMK AO2
                 RAE0957 SLP209 P0000 T01670144 =
2018-09-20 05:52 METAR KPYM 200952Z AUTO 01007KT 7SM -RA BKN011 OVC022 16/14 A3013 RMK AO2 RAB10
                 SLP203 P0000 T01610144 =
2018-09-20 05:03 METAR KPYM 200903Z AUTO 02011KT 10SM BKN013 BKN020 OVC027 17/14 A3012 RMK AO2
                 T01670144 =
2018-09-20 04:52 METAR KPYM 200852Z AUTO 03011KT 10SM BKN015 BKN021 OVC026 17/14 A3011 RMK AO2
                 SLP197 T01670144 53005 =
2018-09-20 04:25 METAR KPYM 200825Z AUTO 03008KT 10SM BKN013 OVC019 17/14 A3011 RMK AO2 T01670144
                 =
2018-09-20 03:52 METAR KPYM 200752Z AUTO 03013G17KT 10SM SCT014 BKN025 OVC047 17/14 A3011 RMK AO2
                 SLP194 T01670139 =
2018-09-20 02:52 METAR KPYM 200652Z AUTO 04007G15KT 10SM SCT017 BKN022 BKN028 17/13 A3010 RMK AO2
                 SLP191 T01670133 =
2018-09-20 01:52 METAR KPYM 200552Z AUTO 03011G16KT 10SM OVC019 17/13 A3010 RMK AO2 SLP192
                 T01670133 10167 20161 53007 =
2018-09-20 00:52 METAR KPYM 200452Z AUTO 03013G18KT 10SM BKN020 17/13 A3009 RMK AO2 SLP190
                 T01670133 401940161 =
2018-09-19 23:52 METAR KPYM 200352Z AUTO 03012G17KT 10SM BKN019 17/13 A3007 RMK AO2 SLP182
                 T01670128 =
2018-09-19 23:24 METAR KPYM 200324Z AUTO 03012KT 10SM BKN022 BKN032 17/13 A3007 RMK AO2 T01670128
                 =
2018-09-19 23:17 METAR KPYM 200317Z AUTO 04014KT 10SM SCT019 SCT024 BKN032 17/13 A3008 RMK AO2
                 T01670128 =
2018-09-19 22:52 METAR KPYM 200252Z AUTO 04012KT 10SM SCT021 BKN027 OVC033 17/13 A3008 RMK AO2
                 SLP185 T01670128 53009 =

Support USWX by starting your Amazon purchase here.